Time;durP1;ratioP1;P1;durP2;ratioP2;P2;SDS_P1;SDS_P2;PMS_P1;PMS_P2;Temp;Humidity;BMP_temperature;BMP_pressure;BME280_temperature;BME280_humidity;BME280_pressure;Samples;Min_cycle;Max_cycle;Signal;HPM_P1;HPM_P2
2021/05/04 00:01:15;;;;;;;23.23;20.83;;;;;;;7.92;68.89;100351.53;5101525;28;20192;-66
2021/05/04 00:03:41;;;;;;;22.23;20.03;;;;;;;8.01;68.01;100335.25;5102180;28;20165;-66
2021/05/04 00:06:06;;;;;;;22.03;19.83;;;;;;;7.97;68.80;100323.06;5101658;28;20172;-66
2021/05/04 00:08:32;;;;;;;22.43;20.23;;;;;;;7.67;68.76;100332.16;5101518;28;20235;-66
2021/05/04 00:10:57;;;;;;;22.73;20.47;;;;;;;7.88;68.44;100315.16;5101926;28;20171;-65
2021/05/04 00:13:22;;;;;;;23.00;20.70;;;;;;;7.90;68.87;100290.06;5101122;28;20175;-67
2021/05/04 00:15:48;;;;;;;22.13;19.97;;;;;;;7.52;69.95;100277.44;5101665;28;20172;-65
2021/05/04 00:18:13;;;;;;;23.30;20.90;;;;;;;7.86;68.83;100283.09;5101850;28;20171;-66
2021/05/04 00:20:38;;;;;;;19.83;17.83;;;;;;;7.86;68.60;100277.91;5101357;28;20203;-67
2021/05/04 00:23:04;;;;;;;24.20;20.50;;;;;;;8.02;67.50;100253.03;5101395;28;20445;-67
2021/05/04 00:25:29;;;;;;;22.17;20.03;;;;;;;8.45;67.17;100244.88;5101246;28;20220;-66
2021/05/04 00:27:54;;;;;;;22.53;20.23;;;;;;;8.14;66.71;100231.53;5101242;28;20172;-67
2021/05/04 00:30:20;;;;;;;22.60;20.40;;;;;;;7.77;68.66;100213.81;5101406;28;20200;-67
2021/05/04 00:32:45;;;;;;;19.40;17.53;;;;;;;7.74;68.58;100209.44;5101190;28;20212;-67
2021/05/04 00:35:11;;;;;;;21.50;19.27;;;;;;;8.12;67.20;100202.06;5101117;28;20172;-66
2021/05/04 00:37:36;;;;;;;21.10;19.10;;;;;;;8.04;68.12;100195.09;5101663;28;20218;-66
2021/05/04 00:40:02;;;;;;;20.00;17.93;;;;;;;8.13;66.89;100188.25;5101065;28;20200;-66
2021/05/04 00:42:27;;;;;;;19.40;17.50;;;;;;;8.43;66.15;100182.50;5100944;28;20453;-66
2021/05/04 00:44:53;;;;;;;21.20;19.20;;;;;;;7.96;67.43;100181.16;5101320;28;20467;-67
2021/05/04 00:47:18;;;;;;;20.60;18.60;;;;;;;8.34;66.42;100166.84;5101001;28;20214;-67
2021/05/04 00:49:43;;;;;;;23.10;18.73;;;;;;;8.47;65.67;100165.25;5100840;28;20287;-66
2021/05/04 00:52:09;;;;;;;21.57;19.37;;;;;;;8.51;66.37;100164.41;5101300;28;20172;-66
2021/05/04 00:54:35;;;;;;;20.40;18.30;;;;;;;8.42;66.38;100173.81;5100617;28;20440;-65
2021/05/04 00:57:00;;;;;;;20.60;18.60;;;;;;;8.10;67.34;100155.34;5100771;28;20168;-67
2021/05/04 00:59:26;;;;;;;20.70;18.57;;;;;;;8.34;66.26;100149.50;5100602;28;20506;-65
2021/05/04 01:01:51;;;;;;;21.00;19.00;;;;;;;8.64;65.55;100131.63;5099728;28;20565;-66
2021/05/04 01:04:17;;;;;;;20.53;18.57;;;;;;;8.36;65.68;100127.03;5100479;28;20160;-67
2021/05/04 01:06:43;;;;;;;20.63;18.53;;;;;;;8.36;65.67;100113.16;5101090;28;20229;-67
2021/05/04 01:09:08;;;;;;;19.57;17.57;;;;;;;8.15;66.44;100106.94;5100374;28;20492;-67
2021/05/04 01:11:33;;;;;;;21.33;19.20;;;;;;;8.35;66.54;100085.44;5100455;28;20172;-67
2021/05/04 01:13:59;;;;;;;20.10;18.30;;;;;;;8.54;65.39;100082.19;5100770;28;20210;-67
2021/05/04 01:16:25;;;;;;;19.77;17.70;;;;;;;8.64;65.15;100095.25;5100398;28;20165;-67
2021/05/04 01:18:50;;;;;;;18.33;16.63;;;;;;;8.76;64.26;100109.16;5100188;28;20425;-66
2021/05/04 01:21:15;;;;;;;19.53;17.77;;;;;;;8.77;64.62;100116.13;5100436;28;20171;-66
2021/05/04 01:23:41;;;;;;;18.20;16.50;;;;;;;8.39;64.67;100095.03;5100029;28;20268;-66
2021/05/04 01:26:06;;;;;;;18.10;16.40;;;;;;;8.77;63.71;100071.06;5099942;28;20514;-66
2021/05/04 01:28:31;;;;;;;17.83;16.10;;;;;;;8.73;63.75;100071.91;5100329;28;20429;-66
2021/05/04 01:30:57;;;;;;;17.73;15.90;;;;;;;8.91;63.15;100071.16;5099819;28;20168;-67
2021/05/04 01:33:22;;;;;;;18.87;16.70;;;;;;;9.15;62.30;100053.94;5099897;28;20245;-65
2021/05/04 01:35:48;;;;;;;16.93;15.47;;;;;;;9.40;61.91;100040.16;5100570;28;20432;-65
2021/05/04 01:38:14;;;;;;;17.37;15.80;;;;;;;8.83;62.26;100041.66;5099802;28;20183;-66
2021/05/04 01:40:39;;;;;;;19.00;17.20;;;;;;;8.69;63.63;100029.44;5100100;28;20168;-66
2021/05/04 01:43:04;;;;;;;17.90;16.20;;;;;;;8.88;63.31;100007.00;5101017;28;20160;-66
2021/05/04 01:45:30;;;;;;;17.20;15.60;;;;;;;8.79;63.70;99998.31;5099758;28;20208;-66
2021/05/04 01:47:55;;;;;;;17.43;15.80;;;;;;;8.37;65.32;99988.50;5099756;28;20172;-66
2021/05/04 01:50:20;;;;;;;17.40;15.80;;;;;;;8.37;64.74;99975.50;5099969;28;20207;-65
2021/05/04 01:52:46;;;;;;;17.00;15.40;;;;;;;8.71;63.80;99960.16;5098982;28;20533;-66
2021/05/04 01:55:11;;;;;;;16.43;14.90;;;;;;;8.80;63.66;99956.72;5098888;28;20172;-67
2021/05/04 01:57:37;;;;;;;16.90;15.20;;;;;;;8.46;63.50;99948.78;5100028;28;20168;-68
2021/05/04 02:00:06;;;;;;;16.30;14.73;;;;;;;8.68;63.00;99948.88;5099377;28;20527;-67
2021/05/04 02:02:32;;;;;;;15.83;14.17;;;;;;;8.71;63.45;99923.78;5098578;28;20498;-66
2021/05/04 02:04:57;;;;;;;16.13;14.63;;;;;;;8.81;62.29;99923.81;5099759;28;20824;-68
2021/05/04 02:07:22;;;;;;;14.90;13.60;;;;;;;8.66;62.88;99919.41;5098820;28;20410;-67
2021/05/04 02:09:48;;;;;;;15.80;14.40;;;;;;;8.71;62.61;99913.41;5099266;28;20200;-67
2021/05/04 02:12:13;;;;;;;15.90;14.30;;;;;;;8.89;61.50;99901.31;5099419;28;20206;-66
2021/05/04 02:14:38;;;;;;;15.83;14.43;;;;;;;8.66;62.58;99904.72;5099042;28;20168;-66
2021/05/04 02:17:04;;;;;;;16.07;14.57;;;;;;;8.53;63.10;99902.91;5099278;28;20164;-67
2021/05/04 02:19:29;;;;;;;15.40;13.80;;;;;;;8.49;62.31;99895.97;5099439;28;20160;-67
2021/05/04 02:21:54;;;;;;;15.97;14.40;;;;;;;8.13;65.24;99874.09;5098876;28;20537;-67
2021/05/04 02:24:19;;;;;;;15.23;13.83;;;;;;;8.52;64.04;99850.06;5098870;28;20242;-65
2021/05/04 02:26:45;;;;;;;15.67;13.73;;;;;;;8.13;64.33;99845.56;5099313;28;20179;-66
2021/05/04 02:29:10;;;;;;;15.53;14.10;;;;;;;8.04;65.08;99823.03;5098893;28;20214;-66
2021/05/04 02:31:35;;;;;;;16.87;15.20;;;;;;;8.32;65.08;99794.56;5098789;28;20172;-67
2021/05/04 02:34:01;;;;;;;16.10;14.60;;;;;;;8.12;65.26;99791.88;5099470;28;20160;-66
2021/05/04 02:36:26;;;;;;;14.37;13.00;;;;;;;8.42;64.19;99771.22;5098695;28;20172;-68
2021/05/04 02:38:51;;;;;;;17.13;12.83;;;;;;;8.26;63.44;99766.84;5098584;28;20168;-66
2021/05/04 02:41:16;;;;;;;15.03;13.53;;;;;;;8.52;63.06;99748.78;5099317;28;20578;-66
2021/05/04 02:43:42;;;;;;;12.63;11.50;;;;;;;8.43;62.56;99752.19;5098849;28;20168;-66
2021/05/04 02:46:07;;;;;;;13.20;11.83;;;;;;;8.09;62.91;99743.41;5098762;28;20176;-66
2021/05/04 02:48:38;;;;;;;14.20;12.90;;;;;;;8.48;62.77;99738.38;5099236;28;20196;-66
2021/05/04 02:51:06;;;;;;;14.77;13.37;;;;;;;8.65;62.39;99710.69;5098428;28;20273;-66
2021/05/04 02:53:31;;;;;;;14.80;13.40;;;;;;;8.50;62.74;99706.34;5098603;28;20651;-67
2021/05/04 02:55:56;;;;;;;12.73;11.53;;;;;;;8.15;63.04;99703.66;5099026;28;20406;-66
2021/05/04 02:58:21;;;;;;;13.53;12.20;;;;;;;8.95;60.72;99695.97;5098736;28;20247;-67
2021/05/04 03:00:47;;;;;;;11.73;10.63;;;;;;;8.75;61.17;99675.19;5098378;28;20187;-67
2021/05/04 03:03:12;;;;;;;12.83;11.63;;;;;;;8.71;60.72;99673.44;5098937;28;20161;-68
2021/05/04 03:05:37;;;;;;;13.30;11.87;;;;;;;8.93;61.22;99669.13;5098387;28;20183;-68
2021/05/04 03:08:03;;;;;;;11.00;10.10;;;;;;;8.66;61.44;99663.06;5098347;28;20537;-67
2021/05/04 03:10:28;;;;;;;12.83;11.60;;;;;;;8.91;61.08;99650.06;5097884;28;20404;-67
2021/05/04 03:12:54;;;;;;;13.60;12.23;;;;;;;8.62;61.53;99637.06;5098386;28;20551;-68
2021/05/04 03:15:19;;;;;;;12.40;11.30;;;;;;;9.02;61.19;99617.09;5098390;28;20267;-66
2021/05/04 03:17:44;;;;;;;13.60;12.30;;;;;;;9.27;60.20;99620.50;5098797;28;20164;-67
2021/05/04 03:20:10;;;;;;;12.50;11.30;;;;;;;9.00;60.27;99621.44;5099822;28;20168;-67
2021/05/04 03:22:35;;;;;;;12.53;11.27;;;;;;;9.19;59.79;99608.41;5102387;28;20233;-66
2021/05/04 03:25:01;;;;;;;12.03;10.30;;;;;;;9.26;59.69;99608.38;5102689;28;20865;-66
2021/05/04 03:27:26;;;;;;;10.37;9.47;;;;;;;8.85;59.01;99596.34;5102689;28;20172;-68
2021/05/04 03:29:51;;;;;;;10.07;9.17;;;;;;;8.89;59.23;99602.41;5102561;28;20206;-67
2021/05/04 03:32:17;;;;;;;10.23;9.30;;;;;;;9.19;57.64;99592.81;5102231;28;20259;-67
2021/05/04 03:34:42;;;;;;;12.50;8.80;;;;;;;8.86;58.03;99590.31;5102290;28;20164;-67
2021/05/04 03:37:07;;;;;;;11.03;8.97;;;;;;;8.99;59.09;99588.53;5102575;28;20184;-67
2021/05/04 03:39:33;;;;;;;9.53;8.53;;;;;;;8.89;58.92;99582.50;5102640;28;20212;-68
2021/05/04 03:41:58;;;;;;;9.13;8.33;;;;;;;8.69;59.88;99572.13;5102766;28;20365;-67
2021/05/04 03:44:23;;;;;;;12.73;9.10;;;;;;;8.95;59.54;99557.34;5102495;28;20177;-67
2021/05/04 03:46:49;;;;;;;10.60;9.60;;;;;;;9.29;58.46;99544.22;5102058;28;20542;-67
2021/05/04 03:49:14;;;;;;;9.13;8.33;;;;;;;9.29;58.14;99529.47;5101972;28;20207;-67
2021/05/04 03:51:39;;;;;;;10.03;9.13;;;;;;;9.53;57.73;99517.22;5102260;28;20410;-68
2021/05/04 03:54:05;;;;;;;9.50;8.63;;;;;;;9.62;56.54;99511.97;5101807;28;20225;-67
2021/05/04 03:56:30;;;;;;;9.33;8.50;;;;;;;9.39;57.42;99505.16;5101826;28;20183;-67
2021/05/04 03:58:56;;;;;;;8.80;8.10;;;;;;;9.52;56.12;99502.47;5102361;28;20435;-67
2021/05/04 04:01:22;;;;;;;9.20;8.40;;;;;;;9.25;57.72;99499.16;5101578;28;20192;-67
2021/05/04 04:03:50;;;;;;;8.90;7.87;;;;;;;9.45;56.60;99496.44;5101725;28;20204;-70
2021/05/04 04:06:16;;;;;;;8.80;8.10;;;;;;;9.51;56.84;99483.41;5102214;28;20172;-67
2021/05/04 04:08:41;;;;;;;8.47;7.67;;;;;;;9.50;56.49;99494.69;5101578;28;20461;-66
2021/05/04 04:11:06;;;;;;;8.63;7.73;;;;;;;9.81;56.79;99478.00;5101491;28;20410;-66
2021/05/04 04:13:33;;;;;;;8.43;7.73;;;;;;;9.83;56.04;99478.84;5101953;28;20169;-66
2021/05/04 04:15:59;;;;;;;9.50;8.60;;;;;;;9.90;55.60;99489.22;5101500;28;20210;-66
2021/05/04 04:18:24;;;;;;;8.33;7.63;;;;;;;9.63;56.79;99473.78;5101397;28;20717;-66
2021/05/04 04:20:49;;;;;;;8.60;7.77;;;;;;;9.47;57.30;99467.81;5101792;28;20169;-66
2021/05/04 04:23:14;;;;;;;8.40;7.70;;;;;;;9.77;56.82;99475.41;5101409;28;20172;-66
2021/05/04 04:25:40;;;;;;;8.90;8.10;;;;;;;9.82;57.53;99456.31;5101057;28;20220;-66
2021/05/04 04:28:05;;;;;;;8.37;7.57;;;;;;;9.28;57.74;99465.31;5101927;28;20571;-66
2021/05/04 04:30:30;;;;;;;8.50;7.80;;;;;;;9.97;56.54;99447.50;5100608;28;20279;-65
2021/05/04 04:32:56;;;;;;;8.93;7.70;;;;;;;10.38;55.22;99452.34;5101024;28;20173;-65
2021/05/04 04:35:21;;;;;;;8.13;7.47;;;;;;;10.20;55.19;99439.47;5101431;28;20161;-66
2021/05/04 04:37:46;;;;;;;7.93;7.10;;;;;;;10.13;55.26;99443.03;5101266;28;20505;-65
2021/05/04 04:40:12;;;;;;;7.20;6.60;;;;;;;10.44;54.69;99435.78;5100922;28;20168;-67
2021/05/04 04:42:38;;;;;;;7.33;6.67;;;;;;;9.86;56.02;99426.75;5101159;28;20165;-67
2021/05/04 04:45:04;;;;;;;8.00;7.23;;;;;;;10.35;54.93;99418.53;5100896;28;20168;-67
2021/05/04 04:47:30;;;;;;;7.63;6.83;;;;;;;10.18;56.10;99425.63;5100901;28;20172;-67
2021/05/04 04:49:55;;;;;;;6.67;6.07;;;;;;;10.29;55.75;99431.56;5101263;28;20438;-66
2021/05/04 04:52:20;;;;;;;6.60;6.10;;;;;;;10.24;55.80;99429.03;5100459;28;20179;-68
2021/05/04 04:54:46;;;;;;;7.30;6.70;;;;;;;10.08;56.82;99423.09;5100769;28;20172;-66
2021/05/04 04:57:11;;;;;;;7.20;6.50;;;;;;;10.06;57.31;99411.81;5104021;28;20192;-66
2021/05/04 04:59:36;;;;;;;7.77;7.07;;;;;;;10.29;57.54;99405.53;5116213;28;20183;-67
2021/05/04 05:02:02;;;;;;;6.30;5.80;;;;;;;10.58;57.06;99400.03;5119013;27;20195;-66
2021/05/04 05:04:27;;;;;;;8.33;7.63;;;;;;;10.24;58.44;99386.47;5100969;28;20207;-67
2021/05/04 05:06:53;;;;;;;7.57;6.97;;;;;;;10.48;58.47;99384.50;5100391;28;20168;-67
2021/05/04 05:09:18;;;;;;;8.20;7.50;;;;;;;10.12;59.52;99390.09;5100257;28;20204;-66
2021/05/04 05:11:44;;;;;;;7.80;7.20;;;;;;;9.95;59.81;99387.63;5100804;28;20487;-67
2021/05/04 05:14:09;;;;;;;8.23;7.43;;;;;;;10.12;60.15;99387.47;5101628;28;20242;-67
2021/05/04 05:16:36;;;;;;;7.30;6.70;;;;;;;10.48;59.05;99372.34;5120565;28;20168;-66
2021/05/04 05:19:01;;;;;;;7.80;7.20;;;;;;;9.76;60.32;99377.38;5121108;28;20257;-66
2021/05/04 05:21:27;;;;;;;8.53;7.83;;;;;;;10.22;60.87;99359.59;5120132;27;20504;-67
2021/05/04 05:23:53;;;;;;;8.40;7.60;;;;;;;10.28;61.22;99359.50;5112550;28;20187;-66
2021/05/04 05:26:19;;;;;;;8.37;7.67;;;;;;;10.45;60.29;99365.41;5119614;28;20276;-67
2021/05/04 05:28:44;;;;;;;8.20;7.50;;;;;;;10.31;61.79;99353.41;5120215;28;20456;-66
2021/05/04 05:31:10;;;;;;;8.23;7.30;;;;;;;9.80;63.10;99346.16;5120333;28;20405;-66
2021/05/04 05:33:35;;;;;;;8.10;7.40;;;;;;;9.71;63.91;99345.34;5115703;28;20183;-67
2021/05/04 05:36:01;;;;;;;8.77;7.93;;;;;;;10.04;63.50;99340.69;5119042;28;20172;-67
2021/05/04 05:38:27;;;;;;;8.50;7.60;;;;;;;9.58;64.36;99338.53;5120909;28;20443;-66
2021/05/04 05:40:52;;;;;;;8.67;7.97;;;;;;;9.76;64.30;99329.69;5120884;28;20195;-67
2021/05/04 05:43:17;;;;;;;8.93;8.03;;;;;;;9.23;65.85;99327.53;5115465;28;20222;-68
2021/05/04 05:45:43;;;;;;;9.00;8.03;;;;;;;9.96;64.84;99316.47;5120260;28;20237;-67
2021/05/04 05:48:08;;;;;;;9.57;8.70;;;;;;;10.14;63.95;99314.56;5116924;28;20263;-67
2021/05/04 05:50:33;;;;;;;9.70;8.70;;;;;;;9.76;65.60;99309.72;5102771;28;20214;-67
2021/05/04 05:52:59;;;;;;;9.03;8.20;;;;;;;10.06;64.58;99305.06;5102503;28;20167;-68
2021/05/04 05:55:24;;;;;;;8.37;7.57;;;;;;;9.63;65.68;99295.09;5120784;28;20195;-67
2021/05/04 05:57:50;;;;;;;11.67;9.03;;;;;;;9.72;66.10;99286.38;5119850;28;20167;-67
2021/05/04 06:00:19;;;;;;;10.53;8.30;;;;;;;9.43;66.26;99293.56;5118679;28;20457;-67
2021/05/04 06:02:46;;;;;;;9.33;8.27;;;;;;;10.02;65.47;99279.94;5119458;28;20171;-67
2021/05/04 06:05:12;;;;;;;9.03;8.20;;;;;;;9.80;66.24;99268.06;5122503;27;20465;-67
2021/05/04 06:07:37;;;;;;;8.33;7.60;;;;;;;9.88;64.76;99271.44;5140103;27;20440;-67
2021/05/04 06:10:03;;;;;;;8.00;7.30;;;;;;;9.36;66.95;99257.22;5140431;27;20438;-67
2021/05/04 06:12:28;;;;;;;10.77;7.87;;;;;;;9.24;67.52;99248.66;5139968;27;20493;-67
2021/05/04 06:14:53;;;;;;;9.90;7.50;;;;;;;9.75;66.67;99236.88;5140265;27;20433;-67
2021/05/04 06:17:19;;;;;;;8.50;7.80;;;;;;;9.44;66.75;99238.06;5140567;27;20167;-67
2021/05/04 06:19:44;;;;;;;7.70;7.00;;;;;;;9.86;66.35;99236.75;5139941;27;20261;-67
2021/05/04 06:22:10;;;;;;;8.20;7.50;;;;;;;10.32;64.73;99241.38;5139742;27;20500;-67
2021/05/04 06:24:35;;;;;;;8.70;7.37;;;;;;;10.12;65.55;99244.25;5140089;27;20222;-66
2021/05/04 06:27:00;;;;;;;8.13;7.33;;;;;;;10.13;66.20;99230.34;5139899;27;20486;-67
2021/05/04 06:29:26;;;;;;;7.63;6.83;;;;;;;9.68;66.89;99223.06;5139881;27;20198;-67
2021/05/04 06:31:58;;;;;;;8.93;7.47;;;;;;;10.34;66.07;99208.38;5139653;27;20229;-65
2021/05/04 06:34:24;;;;;;;8.40;7.70;;;;;;;9.61;67.96;99211.03;5139903;27;20503;-66
2021/05/04 06:36:50;;;;;;;8.17;7.47;;;;;;;9.55;68.08;99211.06;5140025;27;20409;-66
2021/05/04 06:39:15;;;;;;;8.00;7.20;;;;;;;10.08;66.20;99201.78;5139615;27;20428;-66
2021/05/04 06:41:40;;;;;;;8.37;7.57;;;;;;;10.22;65.55;99198.97;5132960;27;20194;-64
2021/05/04 06:44:06;;;;;;;9.37;7.60;;;;;;;9.87;66.44;99196.84;5119297;28;20171;-65
2021/05/04 06:46:32;;;;;;;8.80;7.70;;;;;;;9.43;68.01;99192.13;5118680;28;20228;-65
2021/05/04 06:48:58;;;;;;;8.23;7.40;;;;;;;9.78;66.71;99193.47;5104896;28;20273;-65
2021/05/04 06:51:24;;;;;;;8.37;7.20;;;;;;;10.14;66.43;99190.41;5114668;28;20498;-67
2021/05/04 06:53:49;;;;;;;7.73;7.00;;;;;;;10.68;64.35;99175.78;5104318;28;20425;-66
2021/05/04 06:56:15;;;;;;;12.07;7.50;;;;;;;10.95;63.06;99179.66;5119331;27;20457;-66
2021/05/04 06:58:40;;;;;;;8.33;7.03;;;;;;;11.39;61.58;99171.91;5128377;27;20183;-65
2021/05/04 07:01:05;;;;;;;7.30;6.63;;;;;;;10.25;64.83;99180.69;5117778;28;20200;-65
2021/05/04 07:03:30;;;;;;;6.73;6.13;;;;;;;10.85;63.61;99152.00;5129899;27;20202;-66
2021/05/04 07:05:56;;;;;;;7.33;6.67;;;;;;;10.38;64.29;99163.19;5098187;28;20179;-66
2021/05/04 07:08:21;;;;;;;7.57;6.87;;;;;;;10.63;64.09;99139.34;5103815;28;20219;-66
2021/05/04 07:10:46;;;;;;;7.70;6.90;;;;;;;10.06;66.12;99143.63;5121149;27;20214;-66
2021/05/04 07:13:18;;;;;;;7.20;6.60;;;;;;;10.86;63.18;99138.94;5124387;27;20171;-65
2021/05/04 07:15:45;;;;;;;10.87;6.77;;;;;;;10.67;63.73;99148.81;5118131;28;20191;-66
2021/05/04 07:18:10;;;;;;;7.33;6.70;;;;;;;10.37;64.63;99132.78;5111295;28;20728;-65
2021/05/04 07:20:40;;;;;;;11.10;6.17;;;;;;;10.40;64.54;99140.56;5098106;28;20426;-66
2021/05/04 07:23:09;;;;;;;7.60;6.70;;;;;;;10.89;63.24;99118.06;5116041;27;20240;-66
2021/05/04 07:25:36;;;;;;;7.30;6.60;;;;;;;11.05;62.44;99130.81;5130142;28;20467;-65
2021/05/04 07:28:01;;;;;;;6.60;6.10;;;;;;;10.62;63.13;99119.38;5117561;27;20464;-66
2021/05/04 07:30:28;;;;;;;6.80;6.20;;;;;;;10.92;61.89;99114.53;5133700;27;20475;-64
2021/05/04 07:32:53;;;;;;;9.40;6.30;;;;;;;11.03;62.04;99109.13;5124310;28;20178;-65
2021/05/04 07:35:18;;;;;;;6.27;5.67;;;;;;;10.91;62.36;99098.00;5125253;28;20896;-67
2021/05/04 07:37:44;;;;;;;8.47;6.60;;;;;;;10.55;63.34;99109.94;5110471;28;20187;-64
2021/05/04 07:40:10;;;;;;;6.13;5.53;;;;;;;10.95;63.00;99084.03;5111051;28;20228;-66
2021/05/04 07:42:35;;;;;;;7.03;6.33;;;;;;;11.17;61.50;99095.81;5102118;27;20207;-65
2021/05/04 07:45:00;;;;;;;6.87;5.80;;;;;;;11.27;61.47;99098.22;5112141;28;20753;-67
2021/05/04 07:47:26;;;;;;;5.40;4.90;;;;;;;10.55;63.22;99083.88;5126989;27;20266;-67
2021/05/04 07:49:52;;;;;;;6.17;5.63;;;;;;;10.65;62.11;99095.00;5127894;28;20260;-66
2021/05/04 07:52:17;;;;;;;5.83;5.33;;;;;;;10.42;63.15;99084.09;5115455;28;20184;-65
2021/05/04 07:54:43;;;;;;;6.03;5.53;;;;;;;10.79;62.06;99080.00;5130123;27;20188;-66
2021/05/04 07:57:09;;;;;;;5.30;4.90;;;;;;;10.67;63.25;99090.66;5114558;28;20189;-66
2021/05/04 07:59:35;;;;;;;5.57;5.07;;;;;;;10.66;62.71;99087.16;5125638;27;20175;-66
2021/05/04 08:02:02;;;;;;;6.00;5.50;;;;;;;11.19;61.82;99075.75;5115463;28;20858;-66
2021/05/04 08:04:28;;;;;;;7.77;4.97;;;;;;;10.74;62.74;99074.88;5134005;28;20248;-65
2021/05/04 08:06:55;;;;;;;4.93;4.60;;;;;;;11.02;62.31;99074.34;5113905;28;20460;-66
2021/05/04 08:09:21;;;;;;;5.73;5.10;;;;;;;10.58;62.97;99079.50;5121140;27;20584;-65
2021/05/04 08:11:47;;;;;;;5.10;4.80;;;;;;;10.63;62.93;99068.13;5123059;27;20728;-66
2021/05/04 08:14:12;;;;;;;5.40;4.90;;;;;;;11.06;62.50;99069.94;5135082;27;20424;-65
2021/05/04 08:16:38;;;;;;;5.00;4.50;;;;;;;10.59;63.63;99086.44;5119558;27;20277;-67
2021/05/04 08:19:04;;;;;;;6.10;5.60;;;;;;;10.50;64.69;99067.47;5116862;27;20167;-66
2021/05/04 08:21:32;;;;;;;5.17;4.77;;;;;;;10.60;63.21;99038.63;5128666;27;20492;-65
2021/05/04 08:23:58;;;;;;;5.00;4.60;;;;;;;11.39;61.07;99046.66;5136725;27;20412;-67
2021/05/04 08:26:25;;;;;;;5.07;4.60;;;;;;;12.32;58.33;99048.06;5120706;27;20849;-65
2021/05/04 08:28:50;;;;;;;5.17;4.67;;;;;;;11.41;59.81;99043.13;5112362;27;20204;-65
2021/05/04 08:31:15;;;;;;;5.00;4.60;;;;;;;11.77;58.70;99034.53;5130447;27;20413;-66
2021/05/04 08:33:41;;;;;;;4.93;4.53;;;;;;;11.81;58.94;99028.34;5128262;27;20176;-65
2021/05/04 08:36:06;;;;;;;4.43;4.07;;;;;;;12.02;58.99;99036.63;5133172;27;20183;-65
2021/05/04 08:38:31;;;;;;;5.10;4.63;;;;;;;11.66;59.23;99046.97;5126043;27;20190;-65
2021/05/04 08:40:57;;;;;;;5.00;4.60;;;;;;;11.40;59.91;99038.81;5134337;27;20179;-65
2021/05/04 08:43:23;;;;;;;4.80;4.40;;;;;;;12.00;58.54;99022.72;5111361;27;20187;-66
2021/05/04 08:45:57;;;;;;;4.53;4.23;;;;;;;11.26;60.71;99043.47;5113874;27;20271;-66
2021/05/04 08:48:23;;;;;;;4.80;4.30;;;;;;;11.25;60.71;99036.53;5110041;27;20437;-64
2021/05/04 08:50:48;;;;;;;4.50;4.10;;;;;;;12.19;58.21;99023.13;5127009;27;20479;-64
2021/05/04 08:53:14;;;;;;;4.50;4.13;;;;;;;11.71;58.65;99025.09;5127215;27;20810;-64
2021/05/04 08:55:40;;;;;;;5.07;4.57;;;;;;;11.73;59.62;99022.44;5114992;27;20228;-65
2021/05/04 08:58:05;;;;;;;4.60;4.20;;;;;;;11.25;60.58;99029.53;5113884;27;20444;-64
2021/05/04 09:00:30;;;;;;;5.07;4.67;;;;;;;11.67;59.18;99033.03;5125665;27;20506;-63
2021/05/04 09:03:02;;;;;;;4.93;4.53;;;;;;;11.72;59.26;99041.63;5113399;27;20454;-67
2021/05/04 09:05:52;;;;;;;5.47;4.97;;;;;;;11.93;58.35;99024.59;5108243;27;20254;-64
2021/05/04 09:09:00;;;;;;;5.23;4.73;;;;;;;12.16;58.01;99018.00;5132822;27;20428;-65
2021/05/04 09:16:34;;;;;;;5.20;4.70;;;;;;;11.76;61.49;99014.56;5122000;27;20826;-65
2021/05/04 09:19:11;;;;;;;6.60;4.93;;;;;;;11.98;61.24;99012.31;5123805;27;20204;-65
2021/05/04 09:21:38;;;;;;;5.10;4.70;;;;;;;11.15;63.77;99015.00;5130466;27;20473;-65
2021/05/04 09:24:24;;;;;;;5.27;4.70;;;;;;;10.71;65.18;99014.97;5108458;27;20831;-65
2021/05/04 09:27:05;;;;;;;5.30;4.80;;;;;;;11.12;63.37;99000.28;5112087;27;20436;-65
2021/05/04 09:29:33;;;;;;;5.70;4.50;;;;;;;11.05;63.34;99003.88;5122322;27;20715;-65
2021/05/04 09:32:09;;;;;;;4.90;4.20;;;;;;;11.05;63.24;98995.19;5127024;27;20445;-64
2021/05/04 09:34:50;;;;;;;5.40;4.97;;;;;;;11.35;61.62;99005.88;5101248;28;20437;-65
2021/05/04 09:37:24;;;;;;;5.03;4.50;;;;;;;11.24;61.95;98998.28;5114550;27;20506;-67
2021/05/04 09:39:49;;;;;;;4.80;4.30;;;;;;;11.07;62.40;98965.59;5107684;27;20442;-64
2021/05/04 09:42:17;;;;;;;6.60;4.27;;;;;;;11.42;60.94;98981.38;5126340;27;20436;-66
2021/05/04 09:44:46;;;;;;;4.30;3.90;;;;;;;11.46;60.43;98972.59;5135068;27;20207;-65
2021/05/04 09:47:12;;;;;;;4.23;3.73;;;;;;;11.61;59.35;98981.84;5112403;27;20457;-66
2021/05/04 09:49:39;;;;;;;4.20;3.80;;;;;;;11.09;60.42;98963.81;5114839;27;20458;-66
2021/05/04 09:52:37;;;;;;;4.50;4.00;;;;;;;11.72;58.88;98968.53;5118955;28;20486;-67
2021/05/04 09:55:02;;;;;;;5.17;4.07;;;;;;;11.66;58.51;98947.78;5118138;27;20467;-66
2021/05/04 09:57:29;;;;;;;4.63;4.07;;;;;;;11.59;58.47;98960.13;5121047;27;20477;-65
2021/05/04 09:59:55;;;;;;;4.10;3.70;;;;;;;11.44;59.02;98956.97;5111697;27;20260;-65
2021/05/04 10:02:22;;;;;;;4.33;4.03;;;;;;;11.61;58.27;98946.16;5118738;27;20497;-66
2021/05/04 10:04:48;;;;;;;4.43;4.03;;;;;;;11.15;59.47;98939.38;5118709;27;20189;-67
2021/05/04 10:07:13;;;;;;;4.67;3.90;;;;;;;10.93;60.62;98944.16;5097667;28;20834;-65
2021/05/04 10:09:39;;;;;;;4.57;4.10;;;;;;;11.28;59.38;98953.84;5104224;27;20497;-66
2021/05/04 10:12:04;;;;;;;4.60;4.20;;;;;;;11.39;59.10;98943.19;5131227;27;20224;-65
2021/05/04 10:14:33;;;;;;;4.80;4.27;;;;;;;11.25;59.66;98947.84;5116377;27;20202;-65
2021/05/04 10:16:59;;;;;;;5.63;5.23;;;;;;;11.34;59.39;98937.19;5118862;27;20222;-66
2021/05/04 10:19:24;;;;;;;5.23;4.63;;;;;;;11.36;59.90;98942.38;5120800;27;20521;-66
2021/05/04 10:21:50;;;;;;;6.00;5.40;;;;;;;11.42;60.89;98940.50;5112450;27;20582;-66
2021/05/04 10:24:16;;;;;;;5.77;5.27;;;;;;;11.71;59.66;98944.16;5135545;27;20182;-65
2021/05/04 10:26:41;;;;;;;5.60;5.10;;;;;;;11.53;59.97;98936.75;5122959;27;20420;-65
2021/05/04 10:29:10;;;;;;;5.83;5.43;;;;;;;11.93;58.33;98925.34;5127811;27;20226;-66
2021/05/04 10:31:43;;;;;;;5.00;4.60;;;;;;;11.63;58.91;98918.25;5110621;27;20180;-68
2021/05/04 10:34:25;;;;;;;6.30;5.57;;;;;;;11.60;59.21;98912.25;5132359;27;20527;-66
2021/05/04 10:36:52;;;;;;;5.37;4.87;;;;;;;11.26;59.12;98911.28;5105653;27;20750;-66
2021/05/04 10:39:34;;;;;;;5.47;4.97;;;;;;;11.28;59.44;98926.91;5111680;27;20537;-66
2021/05/04 10:42:00;;;;;;;5.10;4.70;;;;;;;12.16;56.90;98916.13;5129730;27;20840;-67
2021/05/04 10:44:26;;;;;;;5.30;4.80;;;;;;;11.86;58.14;98915.97;5120073;27;20421;-66
2021/05/04 10:46:51;;;;;;;5.43;4.93;;;;;;;12.11;56.98;98916.25;5116356;27;20451;-66
2021/05/04 10:49:19;;;;;;;6.10;4.77;;;;;;;12.26;56.96;98928.06;5129120;27;20214;-67
2021/05/04 10:51:45;;;;;;;6.87;4.83;;;;;;;12.24;57.24;98927.22;5114908;28;20210;-66
2021/05/04 10:54:12;;;;;;;4.80;4.47;;;;;;;13.56;53.67;98924.34;5119614;27;20436;-66
2021/05/04 10:56:38;;;;;;;4.30;4.00;;;;;;;14.30;51.67;98921.84;5131851;27;20433;-66
2021/05/04 10:59:05;;;;;;;5.20;4.70;;;;;;;14.06;51.42;98908.69;5123435;27;20904;-66
2021/05/04 11:01:30;;;;;;;4.73;4.27;;;;;;;13.85;52.19;98917.28;5114061;27;20477;-65
2021/05/04 11:04:00;;;;;;;6.63;4.37;;;;;;;15.05;49.05;98905.19;5111070;28;20408;-66
2021/05/04 11:06:25;;;;;;;6.33;4.57;;;;;;;13.93;51.24;98903.00;5132389;27;20178;-66
2021/05/04 11:08:50;;;;;;;5.13;4.30;;;;;;;13.35;51.42;98905.72;5097461;28;20439;-66
2021/05/04 11:11:47;;;;;;;4.37;4.00;;;;;;;13.34;51.93;98877.88;5108309;28;20457;-66
2021/05/04 11:14:12;;;;;;;6.50;4.73;;;;;;;13.16;52.90;98873.19;5135684;27;20201;-67
2021/05/04 11:16:45;;;;;;;5.07;4.57;;;;;;;14.17;50.15;98883.88;5130940;27;20422;-66
2021/05/04 11:19:12;;;;;;;5.83;4.07;;;;;;;14.70;49.25;98860.13;5115564;28;20206;-66
2021/05/04 11:21:38;;;;;;;4.13;3.73;;;;;;;14.33;49.02;98858.84;5103466;28;20795;-69
2021/05/04 11:24:06;;;;;;;5.17;3.53;;;;;;;13.90;49.49;98883.94;5130406;27;20412;-68
2021/05/04 11:26:46;;;;;;;5.77;3.70;;;;;;;14.47;48.58;98872.28;5112718;27;20456;-66
2021/05/04 11:29:14;;;;;;;3.70;3.40;;;;;;;14.67;47.92;98873.38;5110099;28;20477;-67
2021/05/04 11:31:41;;;;;;;4.10;3.10;;;;;;;15.11;47.48;98873.47;5103769;28;20399;-66
2021/05/04 11:34:40;;;;;;;3.50;3.20;;;;;;;13.90;50.10;98883.94;5125791;28;20751;-66